createdAt,value
2018-04-23T00:01:35.557Z,5.60
2018-04-23T00:04:03.189Z,5.13
2018-04-23T00:06:31.899Z,5.60
2018-04-23T00:08:59.679Z,5.20
2018-04-23T00:11:27.316Z,4.43
2018-04-23T00:13:55.228Z,5.20
2018-04-23T00:16:22.866Z,4.13
2018-04-23T00:18:50.493Z,4.40
2018-04-23T00:21:18.174Z,4.43
2018-04-23T00:23:45.818Z,4.23
2018-04-23T00:26:13.611Z,4.70
2018-04-23T00:28:41.791Z,7.70
2018-04-23T00:31:09.432Z,6.70
2018-04-23T00:33:37.064Z,6.77
2018-04-23T00:36:05.517Z,6.07
2018-04-23T00:38:33.705Z,6.93
2018-04-23T00:41:01.532Z,6.50
2018-04-23T00:43:29.396Z,4.97
2018-04-23T00:45:57.262Z,3.90
2018-04-23T00:48:24.904Z,4.70
2018-04-23T00:50:52.589Z,5.30
2018-04-23T00:53:32.334Z,5.33
2018-04-23T00:56:00.029Z,5.60
2018-04-23T00:58:27.665Z,5.73
2018-04-23T01:00:55.298Z,5.03
2018-04-23T01:03:22.980Z,4.87
2018-04-23T01:05:50.617Z,4.33
2018-04-23T01:08:18.248Z,4.27
2018-04-23T01:10:46.698Z,4.70
2018-04-23T01:13:14.330Z,5.40
2018-04-23T01:15:42.000Z,4.70
2018-04-23T01:18:09.841Z,4.27
2018-04-23T01:20:37.472Z,4.10
2018-04-23T01:23:05.877Z,4.43
2018-04-23T01:25:33.879Z,4.47
2018-04-23T01:28:01.522Z,4.13
2018-04-23T01:30:29.304Z,3.57
2018-04-23T01:32:57.174Z,3.80
2018-04-23T01:35:24.817Z,4.10
2018-04-23T01:37:52.591Z,3.90
2018-04-23T01:40:20.644Z,3.70
2018-04-23T01:42:48.275Z,4.67
2018-04-23T01:45:16.676Z,4.33
2018-04-23T01:47:44.366Z,4.40
2018-04-23T01:50:12.005Z,4.30
2018-04-23T01:52:39.691Z,4.00
2018-04-23T01:55:07.861Z,4.17
2018-04-23T01:57:35.501Z,3.30
2018-04-23T02:00:03.290Z,3.63
2018-04-23T02:02:31.261Z,4.20
2018-04-23T02:04:59.125Z,3.87
2018-04-23T02:07:28.020Z,4.30
2018-04-23T02:09:55.700Z,3.77
2018-04-23T02:12:23.341Z,3.17
2018-04-23T02:14:51.116Z,3.83
2018-04-23T02:17:19.273Z,3.77
2018-04-23T02:19:47.147Z,4.00
2018-04-23T02:22:14.788Z,3.70
2018-04-23T02:24:42.476Z,3.90
2018-04-23T02:27:10.107Z,3.83
2018-04-23T02:29:37.732Z,4.37
2018-04-23T02:32:06.349Z,3.93
2018-04-23T02:34:33.984Z,5.23
2018-04-23T02:37:02.384Z,5.87
2018-04-23T02:39:30.488Z,6.83
2018-04-23T02:41:58.131Z,6.43
2018-04-23T02:44:25.756Z,7.23
2018-04-23T02:46:54.493Z,8.10
2018-04-23T02:49:22.356Z,6.47
2018-04-23T02:51:50.230Z,5.80
2018-04-23T02:54:17.914Z,4.90
2018-04-23T02:56:47.294Z,4.63
2018-04-23T02:59:15.159Z,4.10
2018-04-23T03:01:42.839Z,3.93
2018-04-23T03:04:10.694Z,3.67
2018-04-23T03:06:38.341Z,3.70
2018-04-23T03:09:06.032Z,3.53
2018-04-23T03:11:33.665Z,4.03
2018-04-23T03:14:01.346Z,7.80
2018-04-23T03:16:29.066Z,5.63
2018-04-23T03:18:56.704Z,7.40
2018-04-23T03:21:25.100Z,7.50
2018-04-23T03:23:52.985Z,7.97
2018-04-23T03:26:20.657Z,6.90
2018-04-23T03:28:48.424Z,8.70
2018-04-23T03:31:16.301Z,6.60
2018-04-23T03:33:43.957Z,7.27
2018-04-23T03:36:11.825Z,10.13
2018-04-23T03:38:39.665Z,11.70
2018-04-23T03:41:07.297Z,10.00
2018-04-23T03:43:35.700Z,12.73
2018-04-23T03:46:03.595Z,16.37
2018-04-23T03:48:31.240Z,15.70
2018-04-23T03:50:58.868Z,12.50
2018-04-23T03:53:27.711Z,10.13
2018-04-23T03:55:55.575Z,7.10
2018-04-23T03:58:23.216Z,6.60
2018-04-23T04:00:51.102Z,10.53
2018-04-23T04:03:18.745Z,7.80
2018-04-23T04:05:46.373Z,7.43
2018-04-23T04:08:15.216Z,6.47
2018-04-23T04:10:42.860Z,8.33
2018-04-23T04:13:22.392Z,7.13
2018-04-23T04:16:01.725Z,6.77
2018-04-23T04:18:41.577Z,8.00
2018-04-23T04:21:09.216Z,7.70
2018-04-23T04:23:37.864Z,9.47
2018-04-23T04:26:06.677Z,8.20
2018-04-23T04:28:35.083Z,6.63
2018-04-23T04:31:02.821Z,6.70
2018-04-23T04:33:31.284Z,10.23
2018-04-23T04:35:59.119Z,7.60
2018-04-23T04:38:26.760Z,5.43
2018-04-23T04:40:54.649Z,6.30
2018-04-23T04:43:24.159Z,6.63
2018-04-23T04:45:51.792Z,5.47
2018-04-23T04:48:19.608Z,5.57
2018-04-23T04:50:47.297Z,4.73
2018-04-23T04:53:15.005Z,4.50
2018-04-23T04:55:43.179Z,4.63
2018-04-23T04:58:11.047Z,4.20
2018-04-23T05:00:38.689Z,4.43
2018-04-23T05:03:06.675Z,4.03
2018-04-23T05:05:34.317Z,5.07
2018-04-23T05:08:01.957Z,5.60
2018-04-23T05:10:29.854Z,4.60
2018-04-23T05:12:57.632Z,4.60
2018-04-23T05:15:25.285Z,4.80
2018-04-23T05:17:53.137Z,5.50
2018-04-23T05:20:20.928Z,5.10
2018-04-23T05:22:48.788Z,6.13
2018-04-23T05:25:16.493Z,6.00
2018-04-23T05:27:44.901Z,4.90
2018-04-23T05:30:12.694Z,4.83
2018-04-23T05:32:40.391Z,4.03
2018-04-23T05:35:08.029Z,4.17
2018-04-23T05:37:35.898Z,5.23
2018-04-23T05:40:04.484Z,4.50
2018-04-23T05:42:32.136Z,4.50
2018-04-23T05:44:59.772Z,4.10
2018-04-23T05:47:27.568Z,4.00
2018-04-23T05:49:55.203Z,5.30
2018-04-23T05:52:22.898Z,6.43
2018-04-23T05:54:50.868Z,5.30
2018-04-23T05:57:20.009Z,5.77
2018-04-23T05:59:47.640Z,4.87
2018-04-23T06:02:15.381Z,4.40
2018-04-23T06:04:43.018Z,3.87
2018-04-23T06:07:10.657Z,4.23
2018-04-23T06:09:38.533Z,3.30
2018-04-23T06:12:06.316Z,8.33
2018-04-23T06:14:33.982Z,6.77
2018-04-23T06:17:01.822Z,2.70
2018-04-23T06:19:29.610Z,7.23
2018-04-23T06:21:57.253Z,2.60
2018-04-23T06:24:25.344Z,2.40
2018-04-23T06:26:54.040Z,3.90
2018-04-23T06:29:21.672Z,2.97
2018-04-23T06:31:49.352Z,3.13
2018-04-23T06:34:17.260Z,2.60
2018-04-23T06:36:45.908Z,3.00
2018-04-23T06:39:13.979Z,3.10
2018-04-23T06:41:41.843Z,2.87
2018-04-23T06:44:09.704Z,4.03
2018-04-23T06:46:37.514Z,6.90
2018-04-23T06:49:05.925Z,4.57
2018-04-23T06:51:33.721Z,5.77
2018-04-23T06:54:01.585Z,2.23
2018-04-23T06:56:29.228Z,2.33
2018-04-23T06:58:57.017Z,2.50
2018-04-23T07:01:24.858Z,2.33
2018-04-23T07:03:52.493Z,2.63
2018-04-23T07:06:21.119Z,2.00
2018-04-23T07:08:48.804Z,2.47
2018-04-23T07:11:16.440Z,2.20
2018-04-23T07:13:44.071Z,2.40
2018-04-23T07:16:11.953Z,2.13
2018-04-23T07:18:39.741Z,2.27
2018-04-23T07:21:07.394Z,2.60
2018-04-23T07:23:35.357Z,2.33
2018-04-23T07:26:02.990Z,2.33
2018-04-23T07:28:30.838Z,16.80
2018-04-23T07:30:58.525Z,12.17
2018-04-23T07:33:26.168Z,6.90
2018-04-23T07:35:53.806Z,3.67
2018-04-23T07:38:21.678Z,3.53
2018-04-23T07:40:49.326Z,3.33
2018-04-23T07:43:16.995Z,2.70
2018-04-23T07:45:44.777Z,3.10
2018-04-23T07:48:12.632Z,2.90
2018-04-23T07:50:40.433Z,3.00
2018-04-23T07:53:09.182Z,2.83
2018-04-23T07:55:37.044Z,2.70
2018-04-23T07:58:04.919Z,2.33
2018-04-23T08:00:32.608Z,3.30
2018-04-23T08:03:00.381Z,2.90
2018-04-23T08:05:28.013Z,2.73
2018-04-23T08:07:55.958Z,3.00
2018-04-23T08:10:23.737Z,12.03
2018-04-23T08:12:51.380Z,4.13
2018-04-23T08:15:19.440Z,8.30
2018-04-23T08:17:47.083Z,2.90
2018-04-23T08:20:14.723Z,2.90
2018-04-23T08:22:42.634Z,3.27
2018-04-23T08:25:10.420Z,3.10
2018-04-23T08:27:38.065Z,3.17
2018-04-23T08:30:06.137Z,3.70
2018-04-23T08:32:33.793Z,3.50
2018-04-23T08:35:01.424Z,3.97
2018-04-23T08:37:30.322Z,4.20
2018-04-23T08:39:58.716Z,5.00
2018-04-23T08:42:26.436Z,4.80
2018-04-23T08:44:55.814Z,4.97
2018-04-23T08:47:23.468Z,3.43
2018-04-23T08:49:51.341Z,3.23
2018-04-23T08:52:19.042Z,3.20
2018-04-23T08:54:46.701Z,2.40
2018-04-23T08:57:16.060Z,2.77
2018-04-23T08:59:43.934Z,3.00
2018-04-23T09:02:11.577Z,2.70
2018-04-23T09:04:39.212Z,3.33
2018-04-23T09:07:07.843Z,2.60
2018-04-23T09:09:35.489Z,2.60
2018-04-23T09:12:03.124Z,2.53
2018-04-23T09:14:31.232Z,2.60
2018-04-23T09:16:59.899Z,2.60
2018-04-23T09:19:28.372Z,2.90
2018-04-23T09:21:59.013Z,2.50
2018-04-23T09:24:28.594Z,2.47
2018-04-23T09:26:57.227Z,2.23
2018-04-23T09:29:26.729Z,2.57
2018-04-23T09:31:55.190Z,2.97
2018-04-23T09:34:23.047Z,2.20
2018-04-23T09:36:51.318Z,2.47
2018-04-23T09:39:18.960Z,2.10
2018-04-23T09:41:46.843Z,2.13
2018-04-23T09:44:15.128Z,2.27
2018-04-23T09:46:42.820Z,2.50
2018-04-23T09:49:10.654Z,2.17
2018-04-23T09:51:40.466Z,1.90
2018-04-23T09:54:08.341Z,2.40
2018-04-23T09:56:37.500Z,2.53
2018-04-23T09:59:05.493Z,2.47
2018-04-23T10:01:33.229Z,1.98
2018-04-23T10:04:07.006Z,2.00
2018-04-23T10:06:34.684Z,1.83
2018-04-23T10:09:02.364Z,2.10
2018-04-23T10:11:30.077Z,1.92
2018-04-23T10:13:58.845Z,1.95
2018-04-23T10:16:28.116Z,2.75
2018-04-23T10:18:57.005Z,2.10
2018-04-23T10:21:24.696Z,8.07
2018-04-23T10:23:52.352Z,2.17
2018-04-23T10:26:20.211Z,1.75
2018-04-23T10:28:48.085Z,1.40
2018-04-23T10:31:15.958Z,2.50
2018-04-23T10:33:44.638Z,1.87
2018-04-23T10:36:12.447Z,1.90
2018-04-23T10:38:42.189Z,1.60
2018-04-23T10:41:09.976Z,2.15
2018-04-23T10:43:38.397Z,1.75
2018-04-23T10:46:06.081Z,1.85
2018-04-23T10:48:33.866Z,2.00
2018-04-23T10:51:01.771Z,2.00
2018-04-23T10:53:30.304Z,2.08
2018-04-23T10:56:00.943Z,1.73
2018-04-23T10:58:28.806Z,1.35
2018-04-23T11:00:56.668Z,2.00
2018-04-23T11:03:24.400Z,1.65
2018-04-23T11:05:52.128Z,1.40
2018-04-23T11:08:20.783Z,2.60
2018-04-23T11:10:50.947Z,2.83
2018-04-23T11:13:18.618Z,2.60
2018-04-23T11:15:47.433Z,2.45
2018-04-23T11:18:16.084Z,2.55
2018-04-23T11:20:43.740Z,2.10
2018-04-23T11:23:12.164Z,2.37
2018-04-23T11:25:39.868Z,1.90
2018-04-23T11:28:08.298Z,2.25
2018-04-23T11:30:35.969Z,2.28
2018-04-23T11:33:03.833Z,1.70
2018-04-23T11:35:31.721Z,1.80
2018-04-23T11:38:00.105Z,1.20
2018-04-23T11:40:27.816Z,1.23
2018-04-23T11:42:55.523Z,1.50
2018-04-23T11:45:23.185Z,1.35
2018-04-23T11:47:51.052Z,2.00
2018-04-23T11:50:18.915Z,1.20
2018-04-23T11:52:46.777Z,1.60
2018-04-23T11:55:14.633Z,1.33
2018-04-23T11:57:42.299Z,1.40
2018-04-23T12:00:09.980Z,1.83
2018-04-23T12:02:39.349Z,1.70
2018-04-23T12:05:07.045Z,2.42
2018-04-23T12:07:34.840Z,1.67
2018-04-23T12:10:02.969Z,1.20
2018-04-23T12:12:31.556Z,1.40
2018-04-23T12:14:59.421Z,1.12
2018-04-23T12:17:27.269Z,1.40
2018-04-23T12:19:54.936Z,3.15
2018-04-23T12:22:22.609Z,2.40
2018-04-23T12:24:50.323Z,1.52
2018-04-23T12:27:17.977Z,1.40
2018-04-23T12:29:46.400Z,1.60
2018-04-23T12:32:14.282Z,1.40
2018-04-23T12:34:41.988Z,1.10
2018-04-23T12:37:10.575Z,1.20
2018-04-23T12:39:38.366Z,1.23
2018-04-23T12:42:06.029Z,1.67
2018-04-23T12:44:33.692Z,1.40
2018-04-23T12:47:02.514Z,1.77
2018-04-23T12:49:31.295Z,1.50
2018-04-23T12:51:58.961Z,1.35
2018-04-23T12:54:27.534Z,1.42
2018-04-23T12:56:55.220Z,2.10
2018-04-23T12:59:22.887Z,1.58
2018-04-23T13:01:51.725Z,1.75
2018-04-23T13:04:19.389Z,2.80
2018-04-23T13:06:47.280Z,1.52
2018-04-23T13:09:15.000Z,1.80
2018-04-23T13:11:42.652Z,1.60
2018-04-23T13:14:10.384Z,1.60
2018-04-23T13:16:38.084Z,1.40
2018-04-23T13:19:05.751Z,1.67
2018-04-23T13:21:33.554Z,1.70
2018-04-23T13:24:01.504Z,1.27
2018-04-23T13:26:29.162Z,1.50
2018-04-23T13:28:56.823Z,1.77
2018-04-23T13:31:24.600Z,2.10
2018-04-23T13:33:52.446Z,1.80
2018-04-23T13:36:20.242Z,2.65
2018-04-23T13:38:49.537Z,2.50
2018-04-23T13:41:17.411Z,2.00
2018-04-23T13:43:45.840Z,2.33
2018-04-23T13:46:13.770Z,1.73
2018-04-23T13:48:41.424Z,2.40
2018-04-23T13:51:09.093Z,3.00
2018-04-23T13:53:36.805Z,2.20
2018-04-23T13:56:04.469Z,2.20
2018-04-23T13:58:32.109Z,4.67
2018-04-23T14:01:01.158Z,2.07
2018-04-23T14:03:29.020Z,2.37
2018-04-23T14:05:56.895Z,2.60
2018-04-23T14:08:24.733Z,2.40
2018-04-23T14:10:52.372Z,1.90
2018-04-23T14:13:20.773Z,1.60
2018-04-23T14:15:49.475Z,2.73
2018-04-23T14:18:17.109Z,1.77
2018-04-23T14:20:44.902Z,2.00
2018-04-23T14:23:12.956Z,2.00
2018-04-23T14:25:40.739Z,2.20
2018-04-23T14:28:08.416Z,2.17
2018-04-23T14:30:36.105Z,1.80
2018-04-23T14:33:03.752Z,1.90
2018-04-23T14:35:31.409Z,2.10
2018-04-23T14:37:59.101Z,1.90
2018-04-23T14:40:27.740Z,2.37
2018-04-23T14:42:55.384Z,2.17
2018-04-23T14:45:23.316Z,2.70
2018-04-23T14:47:51.953Z,1.83
2018-04-23T14:50:19.594Z,2.10
2018-04-23T14:52:47.552Z,2.00
2018-04-23T14:55:15.185Z,1.83
2018-04-23T14:57:43.010Z,1.83
2018-04-23T15:00:10.705Z,1.90
2018-04-23T15:02:38.536Z,2.13
2018-04-23T15:05:06.400Z,2.50
2018-04-23T15:07:34.348Z,1.80
2018-04-23T15:10:02.138Z,2.13
2018-04-23T15:12:29.782Z,2.63
2018-04-23T15:14:57.841Z,2.20
2018-04-23T15:17:25.623Z,2.57
2018-04-23T15:19:53.268Z,2.27
2018-04-23T15:22:21.360Z,2.30
2018-04-23T15:24:49.124Z,2.03
2018-04-23T15:27:16.986Z,2.07
2018-04-23T15:29:44.672Z,2.00
2018-04-23T15:32:12.546Z,2.40
2018-04-23T15:34:40.178Z,2.10
2018-04-23T15:37:07.864Z,2.40
2018-04-23T15:39:37.144Z,3.17
2018-04-23T15:42:04.806Z,2.30
2018-04-23T15:44:32.672Z,3.07
2018-04-23T15:47:00.325Z,2.23
2018-04-23T15:49:28.207Z,2.30
2018-04-23T15:51:55.903Z,2.47
2018-04-23T15:54:24.442Z,3.47
2018-04-23T15:56:52.265Z,2.60
2018-04-23T15:59:19.968Z,2.27
2018-04-23T16:01:47.603Z,2.07
2018-04-23T16:04:16.140Z,2.20
2018-04-23T16:06:43.843Z,3.30
2018-04-23T16:09:11.474Z,2.10
2018-04-23T16:11:39.316Z,2.30
2018-04-23T16:14:07.195Z,2.37
2018-04-23T16:16:35.059Z,2.07
2018-04-23T16:19:02.921Z,2.13
2018-04-23T16:21:30.896Z,1.70
2018-04-23T16:23:58.541Z,2.03
2018-04-23T16:26:26.175Z,1.80
2018-04-23T16:28:53.856Z,2.00
2018-04-23T16:31:21.489Z,6.60
2018-04-23T16:33:49.924Z,5.97
2018-04-23T16:36:17.788Z,2.80
2018-04-23T16:38:45.667Z,12.87
2018-04-23T16:41:13.306Z,5.83
2018-04-23T16:43:40.997Z,4.00
2018-04-23T16:46:08.642Z,3.10
2018-04-23T16:48:36.509Z,2.80
2018-04-23T16:51:05.724Z,2.73
2018-04-23T16:53:33.575Z,2.70
2018-04-23T16:56:01.224Z,3.00
2018-04-23T16:58:29.098Z,3.17
2018-04-23T17:00:56.746Z,4.00
2018-04-23T17:03:24.517Z,4.73
2018-04-23T17:05:52.368Z,3.80
2018-04-23T17:08:19.996Z,2.57
2018-04-23T17:10:48.533Z,2.93
2018-04-23T17:13:16.232Z,2.70
2018-04-23T17:15:44.063Z,3.37
2018-04-23T17:18:11.924Z,3.70
2018-04-23T17:20:39.895Z,3.00
2018-04-23T17:23:07.554Z,2.77
2018-04-23T17:25:35.194Z,3.10
2018-04-23T17:28:02.874Z,2.77
2018-04-23T17:30:30.516Z,3.30
2018-04-23T17:32:58.153Z,2.93
2018-04-23T17:35:26.989Z,3.57
2018-04-23T17:37:54.636Z,3.90
2018-04-23T17:40:22.273Z,4.23
2018-04-23T17:42:50.980Z,3.70
2018-04-23T17:45:18.765Z,3.40
2018-04-23T17:47:46.408Z,3.30
2018-04-23T17:50:14.169Z,2.70
2018-04-23T17:52:41.948Z,2.90
2018-04-23T17:55:09.712Z,2.43
2018-04-23T17:57:37.571Z,2.30
2018-04-23T18:00:05.265Z,2.60
2018-04-23T18:02:32.904Z,2.70
2018-04-23T18:05:00.594Z,2.97
2018-04-23T18:07:28.237Z,2.50
2018-04-23T18:09:55.869Z,2.20
2018-04-23T18:12:23.732Z,2.90
2018-04-23T18:14:51.517Z,3.07
2018-04-23T18:17:20.071Z,2.50
2018-04-23T18:19:47.997Z,2.47
2018-04-23T18:22:15.843Z,2.17
2018-04-23T18:24:43.485Z,2.27
2018-04-23T18:27:11.176Z,2.30
2018-04-23T18:29:38.942Z,2.70
2018-04-23T18:32:06.801Z,2.73
2018-04-23T18:34:34.605Z,2.50
2018-04-23T18:37:03.251Z,2.77
2018-04-23T18:39:31.121Z,2.47
2018-04-23T18:41:58.817Z,2.37
2018-04-23T18:44:27.365Z,2.50
2018-04-23T18:46:55.005Z,2.27
2018-04-23T18:49:23.084Z,2.60
2018-04-23T18:51:50.855Z,2.70
2018-04-23T18:54:18.727Z,2.27
2018-04-23T18:56:46.433Z,2.60
2018-04-23T18:59:15.068Z,2.60
2018-04-23T19:01:42.941Z,2.77
2018-04-23T19:04:10.645Z,2.73
2018-04-23T19:06:38.274Z,2.60
2018-04-23T19:09:06.037Z,2.63
2018-04-23T19:11:33.725Z,2.23
2018-04-23T19:14:01.945Z,2.60
2018-04-23T19:16:29.725Z,2.87
2018-04-23T19:18:58.377Z,2.47
2018-04-23T19:21:26.239Z,2.57
2018-04-23T19:23:54.112Z,2.40
2018-04-23T19:26:21.953Z,2.77
2018-04-23T19:28:49.594Z,2.50
2018-04-23T19:31:18.218Z,2.93
2018-04-23T19:33:45.912Z,2.33
2018-04-23T19:36:14.161Z,2.97
2018-04-23T19:38:42.074Z,3.07
2018-04-23T19:41:10.803Z,2.37
2018-04-23T19:43:38.433Z,2.80
2018-04-23T19:46:06.895Z,2.87
2018-04-23T19:48:34.715Z,2.80
2018-04-23T19:51:02.364Z,3.10
2018-04-23T19:53:30.004Z,2.50
2018-04-23T19:55:58.621Z,2.80
2018-04-23T19:58:26.256Z,2.53
2018-04-23T20:00:54.051Z,2.67
2018-04-23T20:03:22.537Z,2.70
2018-04-23T20:05:50.168Z,2.70
2018-04-23T20:08:17.805Z,2.73
2018-04-23T20:10:46.413Z,2.93
2018-04-23T20:13:14.044Z,3.30
2018-04-23T20:15:42.455Z,3.53
2018-04-23T20:18:10.138Z,3.83
2018-04-23T20:20:37.776Z,3.63
2018-04-23T20:23:05.475Z,3.40
2018-04-23T20:25:33.741Z,3.27
2018-04-23T20:28:01.380Z,3.70
2018-04-23T20:30:29.009Z,4.10
2018-04-23T20:32:57.453Z,3.87
2018-04-23T20:35:25.089Z,3.73
2018-04-23T20:37:52.721Z,3.87
2018-04-23T20:40:21.164Z,4.00
2018-04-23T20:42:49.565Z,3.37
2018-04-23T20:45:17.393Z,3.83
2018-04-23T20:47:45.122Z,3.47
2018-04-23T20:50:12.919Z,3.90
2018-04-23T20:52:40.564Z,4.03
2018-04-23T20:55:08.646Z,4.13
2018-04-23T20:57:36.517Z,3.37
2018-04-23T21:00:04.177Z,7.20
2018-04-23T21:02:31.869Z,5.80
2018-04-23T21:05:00.622Z,5.00
2018-04-23T21:07:28.496Z,3.93
2018-04-23T21:09:56.436Z,4.00
2018-04-23T21:12:24.068Z,4.13
2018-04-23T21:14:52.478Z,3.97
2018-04-23T21:17:20.781Z,4.97
2018-04-23T21:19:48.424Z,4.97
2018-04-23T21:22:16.064Z,5.00
2018-04-23T21:24:44.885Z,4.93
2018-04-23T21:27:12.760Z,4.57
2018-04-23T21:29:40.400Z,4.43
2018-04-23T21:32:08.084Z,4.30
2018-04-23T21:34:35.735Z,4.80
2018-04-23T21:37:03.609Z,4.70
2018-04-23T21:39:32.185Z,4.20
2018-04-23T21:41:59.821Z,5.10
2018-04-23T21:44:29.166Z,4.77
2018-04-23T21:46:57.156Z,5.07
2018-04-23T21:49:24.985Z,4.70
2018-04-23T21:51:52.857Z,5.53
2018-04-23T21:54:20.556Z,5.27
2018-04-23T21:56:48.196Z,5.83
2018-04-23T21:59:16.040Z,5.23
2018-04-23T22:01:43.914Z,4.90
2018-04-23T22:04:11.557Z,6.13
2018-04-23T22:06:39.334Z,5.33
2018-04-23T22:09:07.033Z,4.93
2018-04-23T22:11:35.177Z,5.13
2018-04-23T22:14:02.837Z,5.60
2018-04-23T22:16:30.529Z,5.13
2018-04-23T22:18:58.169Z,6.10
2018-04-23T22:21:26.030Z,5.47
2018-04-23T22:23:54.080Z,5.50
2018-04-23T22:26:21.713Z,5.53
2018-04-23T22:28:50.120Z,5.70
2018-04-23T22:31:17.805Z,5.87
2018-04-23T22:33:45.658Z,6.40
2018-04-23T22:36:13.532Z,7.07
2018-04-23T22:38:41.236Z,6.73
2018-04-23T22:41:09.646Z,6.20
2018-04-23T22:43:37.348Z,5.93
2018-04-23T22:46:05.181Z,5.83
2018-04-23T22:48:33.837Z,6.53
2018-04-23T22:51:02.241Z,5.90
2018-04-23T22:53:30.112Z,5.73
2018-04-23T22:55:57.894Z,6.20
2018-04-23T22:58:25.624Z,5.53
2018-04-23T23:00:53.399Z,5.93
2018-04-23T23:03:21.065Z,5.33
2018-04-23T23:05:48.706Z,5.60
2018-04-23T23:08:16.389Z,5.40
2018-04-23T23:10:44.170Z,5.40
2018-04-23T23:13:11.816Z,5.80
2018-04-23T23:15:39.493Z,6.53
2018-04-23T23:18:07.133Z,5.40
2018-04-23T23:20:34.919Z,5.63
2018-04-23T23:23:03.088Z,6.57
2018-04-23T23:25:30.733Z,5.93
2018-04-23T23:27:59.377Z,5.10
2018-04-23T23:30:27.302Z,5.83
2018-04-23T23:32:54.956Z,5.83
2018-04-23T23:35:22.593Z,4.83
2018-04-23T23:37:51.319Z,5.47
2018-04-23T23:40:19.182Z,5.87
2018-04-23T23:42:46.826Z,6.13
2018-04-23T23:45:15.196Z,6.57
2018-04-23T23:47:42.989Z,6.73
2018-04-23T23:50:10.658Z,7.37
2018-04-23T23:52:38.493Z,7.20
2018-04-23T23:55:06.382Z,7.67
2018-04-23T23:57:34.242Z,7.50
